createdAt,value
2018-10-18T00:00:06.103Z,11.27
2018-10-18T00:02:33.594Z,11.07
2018-10-18T00:05:02.202Z,11.03
2018-10-18T00:07:29.793Z,10.67
2018-10-18T00:09:57.419Z,10.97
2018-10-18T00:12:24.950Z,9.70
2018-10-18T00:14:52.581Z,10.80
2018-10-18T00:17:25.818Z,11.63
2018-10-18T00:19:53.647Z,11.13
2018-10-18T00:22:21.186Z,11.37
2018-10-18T00:24:49.006Z,11.63
2018-10-18T00:27:16.818Z,11.63
2018-10-18T00:29:44.411Z,10.43
2018-10-18T00:32:12.165Z,11.23
2018-10-18T00:34:40.150Z,10.23
2018-10-18T00:37:07.685Z,10.10
2018-10-18T00:39:35.287Z,10.03
2018-10-18T00:42:03.119Z,10.30
2018-10-18T00:44:30.646Z,10.77
2018-10-18T00:46:58.290Z,9.83
2018-10-18T00:49:25.811Z,10.53
2018-10-18T00:51:53.504Z,11.00
2018-10-18T00:54:21.068Z,10.70
2018-10-18T00:56:49.136Z,11.23
2018-10-18T00:59:16.737Z,10.80
2018-10-18T01:01:44.430Z,10.80
2018-10-18T01:04:12.046Z,9.93
2018-10-18T01:06:39.682Z,11.17
2018-10-18T01:09:08.752Z,10.67
2018-10-18T01:11:36.771Z,10.57
2018-10-18T01:14:04.800Z,11.37
2018-10-18T01:16:32.370Z,10.30
2018-10-18T01:18:59.972Z,10.83
2018-10-18T01:21:27.540Z,10.57
2018-10-18T01:23:55.412Z,11.57
2018-10-18T01:26:22.961Z,10.50
2018-10-18T01:28:50.519Z,11.20
2018-10-18T01:31:18.770Z,10.00
2018-10-18T01:33:46.315Z,10.33
2018-10-18T01:36:14.720Z,10.83
2018-10-18T01:38:42.285Z,10.20
2018-10-18T01:41:09.857Z,11.00
2018-10-18T01:43:37.670Z,11.13
2018-10-18T01:46:05.999Z,10.97
2018-10-18T01:48:33.652Z,11.40
2018-10-18T01:51:03.410Z,10.93
2018-10-18T01:53:30.983Z,10.67
2018-10-18T01:55:58.557Z,10.97
2018-10-18T01:58:26.442Z,11.47
2018-10-18T02:00:54.271Z,13.47
2018-10-18T02:03:21.838Z,11.17
2018-10-18T02:05:49.658Z,11.50
2018-10-18T02:08:17.326Z,11.23
2018-10-18T02:10:44.894Z,11.30
2018-10-18T02:13:12.749Z,10.97
2018-10-18T02:15:40.251Z,11.67
2018-10-18T02:18:07.897Z,11.80
2018-10-18T02:20:35.861Z,11.17
2018-10-18T02:23:03.557Z,11.37
2018-10-18T02:25:31.175Z,11.83
2018-10-18T02:27:58.972Z,11.50
2018-10-18T02:30:26.593Z,11.70
2018-10-18T02:32:54.223Z,11.90
2018-10-18T02:35:22.192Z,11.63
2018-10-18T02:37:49.948Z,11.33
2018-10-18T02:40:17.548Z,10.90
2018-10-18T02:42:45.608Z,11.43
2018-10-18T02:45:13.266Z,10.53
2018-10-18T02:47:40.908Z,11.07
2018-10-18T02:50:08.905Z,10.37
2018-10-18T02:52:36.646Z,11.20
2018-10-18T02:55:04.711Z,11.73
2018-10-18T02:57:32.632Z,11.77
2018-10-18T03:00:00.821Z,12.27
2018-10-18T03:02:28.476Z,11.47
2018-10-18T03:04:56.088Z,10.90
2018-10-18T03:07:24.477Z,12.07
2018-10-18T03:09:52.133Z,11.50
2018-10-18T03:12:19.876Z,11.90
2018-10-18T03:14:47.591Z,11.03
2018-10-18T03:17:19.476Z,11.27
2018-10-18T03:19:48.089Z,12.57
2018-10-18T03:22:36.550Z,12.07
2018-10-18T03:26:23.500Z,11.63
2018-10-18T03:28:51.094Z,11.53
2018-10-18T03:31:18.806Z,10.77
2018-10-18T03:33:46.576Z,12.80
2018-10-18T03:36:14.876Z,11.87
2018-10-18T03:38:42.474Z,12.37
2018-10-18T03:41:10.394Z,12.77
2018-10-18T03:43:38.071Z,11.60
2018-10-18T03:46:05.820Z,11.60
2018-10-18T03:48:33.577Z,12.30
2018-10-18T03:51:01.177Z,12.27
2018-10-18T03:53:28.768Z,11.87
2018-10-18T03:55:56.563Z,12.03
2018-10-18T03:58:24.178Z,12.40
2018-10-18T04:00:51.834Z,12.40
2018-10-18T04:03:19.813Z,12.70
2018-10-18T04:05:47.471Z,12.07
2018-10-18T04:08:15.094Z,12.50
2018-10-18T04:10:42.805Z,12.47
2018-10-18T04:13:10.522Z,12.00
2018-10-18T04:15:38.035Z,12.30
2018-10-18T04:18:05.954Z,11.23
2018-10-18T04:20:33.599Z,11.80
2018-10-18T04:23:01.727Z,12.33
2018-10-18T04:25:29.419Z,12.20
2018-10-18T04:27:57.027Z,11.97
2018-10-18T04:30:24.899Z,10.73
2018-10-18T04:32:52.576Z,12.73
2018-10-18T04:35:20.216Z,11.83
2018-10-18T04:37:48.186Z,13.07
2018-10-18T04:40:15.790Z,10.97
2018-10-18T04:42:43.554Z,11.17
2018-10-18T04:45:11.302Z,10.83
2018-10-18T04:47:39.010Z,11.13
2018-10-18T04:50:07.159Z,11.67
2018-10-18T04:52:35.046Z,11.83
2018-10-18T04:55:04.184Z,11.13
2018-10-18T04:57:31.886Z,12.80
2018-10-18T05:00:00.527Z,12.67
2018-10-18T05:02:28.592Z,12.17
2018-10-18T05:05:07.714Z,12.77
2018-10-18T05:07:35.542Z,12.33
2018-10-18T05:10:03.288Z,12.43
2018-10-18T05:12:30.959Z,11.97
2018-10-18T05:14:58.641Z,12.67
2018-10-18T05:17:26.333Z,13.40
2018-10-18T05:19:53.977Z,12.57
2018-10-18T05:22:21.856Z,12.10
2018-10-18T05:24:49.509Z,12.03
2018-10-18T05:27:17.144Z,12.97
2018-10-18T05:29:45.047Z,11.90
2018-10-18T05:32:12.814Z,11.47
2018-10-18T05:34:40.518Z,11.03
2018-10-18T05:37:08.258Z,11.87
2018-10-18T05:39:35.931Z,11.90
2018-10-18T05:42:03.727Z,12.20
2018-10-18T05:44:31.682Z,11.97
2018-10-18T05:46:59.387Z,12.53
2018-10-18T05:49:27.083Z,13.30
2018-10-18T05:51:55.095Z,14.07
2018-10-18T05:54:23.031Z,13.83
2018-10-18T05:56:51.239Z,14.47
2018-10-18T05:59:19.435Z,14.03
2018-10-18T06:01:47.183Z,13.83
2018-10-18T06:04:14.857Z,14.57
2018-10-18T06:06:42.715Z,13.77
2018-10-18T06:09:11.988Z,13.77
2018-10-18T06:11:39.689Z,15.23
2018-10-18T06:14:07.718Z,13.60
2018-10-18T06:16:35.418Z,14.27
2018-10-18T06:19:03.125Z,12.83
2018-10-18T06:21:31.094Z,13.50
2018-10-18T06:23:58.746Z,12.80
2018-10-18T06:26:26.453Z,12.67
2018-10-18T06:28:54.440Z,12.37
2018-10-18T06:31:22.187Z,12.03
2018-10-18T06:33:50.142Z,12.53
2018-10-18T06:36:17.875Z,12.20
2018-10-18T06:38:45.593Z,11.77
2018-10-18T06:41:13.539Z,12.00
2018-10-18T06:43:41.702Z,12.17
2018-10-18T06:46:11.105Z,11.73
2018-10-18T06:48:39.534Z,11.80
2018-10-18T06:51:07.434Z,12.20
2018-10-18T06:53:35.209Z,11.90
2018-10-18T06:56:03.437Z,13.00
2018-10-18T06:58:31.095Z,11.93
2018-10-18T07:00:58.966Z,12.23
2018-10-18T07:03:26.659Z,12.50
2018-10-18T07:05:54.256Z,12.73
2018-10-18T07:08:22.183Z,12.80
2018-10-18T07:10:49.781Z,12.50
2018-10-18T07:13:17.282Z,12.23
2018-10-18T07:15:44.892Z,12.60
2018-10-18T07:18:12.523Z,12.30
2018-10-18T07:20:40.170Z,12.60
2018-10-18T07:23:07.828Z,12.33
2018-10-18T07:25:35.417Z,12.50
2018-10-18T07:28:03.344Z,12.40
2018-10-18T07:30:30.955Z,12.20
2018-10-18T07:32:58.527Z,12.83
2018-10-18T07:35:26.332Z,12.97
2018-10-18T07:37:53.907Z,11.93
2018-10-18T07:40:21.491Z,12.93
2018-10-18T07:42:49.359Z,12.63
2018-10-18T07:45:16.975Z,12.00
2018-10-18T07:47:45.031Z,12.97
2018-10-18T07:50:13.487Z,13.10
2018-10-18T07:52:41.043Z,12.93
2018-10-18T07:55:09.475Z,13.17
2018-10-18T07:57:37.790Z,13.40
2018-10-18T08:00:08.319Z,14.80
2018-10-18T08:02:35.821Z,13.33
2018-10-18T08:05:04.488Z,13.67
2018-10-18T08:07:32.079Z,13.47
2018-10-18T08:09:59.665Z,11.27
2018-10-18T08:12:27.805Z,12.43
2018-10-18T08:14:55.497Z,13.87
2018-10-18T08:17:23.196Z,12.73
2018-10-18T08:19:51.224Z,13.33
2018-10-18T08:22:18.819Z,11.93
2018-10-18T08:24:46.471Z,13.93
2018-10-18T08:27:14.064Z,13.37
2018-10-18T08:29:41.685Z,13.60
2018-10-18T08:32:09.535Z,13.70
2018-10-18T08:34:37.259Z,12.53
2018-10-18T08:37:05.014Z,12.77
2018-10-18T08:39:32.679Z,13.97
2018-10-18T08:42:00.300Z,12.97
2018-10-18T08:44:27.973Z,12.90
2018-10-18T08:46:56.154Z,13.07
2018-10-18T08:49:23.692Z,13.10
2018-10-18T08:51:51.269Z,13.13
2018-10-18T08:54:18.881Z,13.30
2018-10-18T08:56:46.427Z,13.30
2018-10-18T08:59:13.979Z,14.03
2018-10-18T09:03:02.306Z,13.40
2018-10-18T09:05:30.062Z,12.67
2018-10-18T09:07:57.696Z,14.03
2018-10-18T09:10:25.294Z,13.63
2018-10-18T09:12:53.249Z,14.03
2018-10-18T09:15:21.129Z,13.87
2018-10-18T09:17:48.747Z,13.07
2018-10-18T09:20:16.296Z,13.57
2018-10-18T09:22:44.100Z,14.23
2018-10-18T09:25:11.751Z,12.97
2018-10-18T09:27:39.830Z,13.60
2018-10-18T09:30:09.867Z,14.23
2018-10-18T09:32:37.411Z,14.37
2018-10-18T09:35:05.258Z,13.90
2018-10-18T09:37:33.115Z,14.10
2018-10-18T09:40:00.675Z,14.37
2018-10-18T09:42:28.286Z,13.60
2018-10-18T09:44:56.057Z,14.97
2018-10-18T09:47:23.644Z,14.80
2018-10-18T09:49:51.391Z,14.03
2018-10-18T09:52:19.052Z,15.87
2018-10-18T09:54:46.667Z,14.60
2018-10-18T09:57:14.702Z,15.37
2018-10-18T09:59:42.772Z,14.97
2018-10-18T10:02:16.542Z,15.37
2018-10-18T10:04:44.123Z,15.37
2018-10-18T10:07:11.730Z,15.53
2018-10-18T10:09:40.159Z,15.07
2018-10-18T10:12:07.792Z,16.33
2018-10-18T10:14:36.255Z,16.60
2018-10-18T10:17:04.875Z,15.70
2018-10-18T10:19:32.543Z,16.57
2018-10-18T10:22:00.157Z,16.70
2018-10-18T10:24:28.017Z,16.47
2018-10-18T10:26:55.607Z,17.30
2018-10-18T10:29:23.286Z,16.10
2018-10-18T10:31:51.094Z,17.80
2018-10-18T10:34:18.611Z,17.50
2018-10-18T10:36:46.203Z,17.60
2018-10-18T10:39:14.007Z,17.13
2018-10-18T10:41:41.505Z,18.37
2018-10-18T10:44:09.742Z,17.83
2018-10-18T10:46:39.067Z,17.77
2018-10-18T10:49:07.136Z,18.30
2018-10-18T10:51:34.783Z,18.37
2018-10-18T10:54:02.824Z,17.63
2018-10-18T10:56:30.509Z,17.43
2018-10-18T10:58:58.121Z,17.27
2018-10-18T11:01:27.501Z,18.23
2018-10-18T11:03:56.371Z,18.83
2018-10-18T11:06:24.114Z,18.50
2018-10-18T11:08:52.119Z,17.93
2018-10-18T11:11:20.211Z,18.90
2018-10-18T11:13:47.870Z,17.20
2018-10-18T11:16:15.775Z,18.23
2018-10-18T11:18:43.315Z,16.93
2018-10-18T11:21:12.395Z,16.07
2018-10-18T11:23:40.121Z,18.37
2018-10-18T11:26:07.804Z,17.73
2018-10-18T11:28:35.403Z,17.17
2018-10-18T11:31:03.131Z,16.43
2018-10-18T11:33:30.907Z,17.03
2018-10-18T11:35:58.494Z,17.90
2018-10-18T11:38:26.511Z,16.37
2018-10-18T11:40:54.279Z,16.83
2018-10-18T11:43:21.941Z,17.30
2018-10-18T11:45:49.821Z,15.90
2018-10-18T11:48:17.584Z,15.90
2018-10-18T11:50:45.737Z,15.00
2018-10-18T11:53:13.473Z,14.97
2018-10-18T11:55:41.138Z,14.03
2018-10-18T11:58:09.959Z,13.40
2018-10-18T12:00:37.625Z,14.00
2018-10-18T12:03:06.140Z,13.63
2018-10-18T12:05:34.080Z,13.90
2018-10-18T12:08:01.897Z,13.60
2018-10-18T12:10:29.609Z,13.47
2018-10-18T12:12:57.465Z,14.67
2018-10-18T12:15:25.059Z,15.00
2018-10-18T12:17:52.666Z,14.07
2018-10-18T12:20:21.438Z,15.77
2018-10-18T12:22:49.057Z,13.47
2018-10-18T12:25:16.714Z,15.20
2018-10-18T12:27:44.968Z,14.97
2018-10-18T12:30:13.586Z,15.00
2018-10-18T12:32:41.168Z,15.60
2018-10-18T12:35:08.892Z,15.97
2018-10-18T12:37:37.019Z,15.60
2018-10-18T12:40:06.637Z,14.90
2018-10-18T12:42:34.830Z,15.37
2018-10-18T12:45:02.440Z,14.90
2018-10-18T12:47:30.015Z,14.50
2018-10-18T12:49:57.676Z,15.97
2018-10-18T12:52:25.457Z,14.43
2018-10-18T12:54:53.204Z,14.80
2018-10-18T12:57:20.665Z,16.23
2018-10-18T12:59:48.526Z,14.63
2018-10-18T13:02:16.157Z,15.20
2018-10-18T13:04:44.365Z,15.93
2018-10-18T13:07:12.248Z,15.60
2018-10-18T13:09:39.823Z,16.80
2018-10-18T13:12:07.458Z,16.03
2018-10-18T13:14:35.590Z,16.40
2018-10-18T13:17:03.289Z,16.17
2018-10-18T13:19:30.882Z,17.30
2018-10-18T13:21:58.705Z,16.93
2018-10-18T13:24:26.294Z,17.33
2018-10-18T13:26:53.950Z,16.73
2018-10-18T13:29:21.801Z,17.30
2018-10-18T13:31:49.415Z,16.73
2018-10-18T13:34:16.975Z,16.60
2018-10-18T13:36:45.150Z,17.03
2018-10-18T13:39:13.864Z,17.27
2018-10-18T13:41:41.436Z,16.90
2018-10-18T13:44:09.428Z,17.93
2018-10-18T13:46:37.502Z,16.27
2018-10-18T13:49:05.398Z,17.30
2018-10-18T13:51:33.200Z,16.93
2018-10-18T13:54:01.748Z,18.20
2018-10-18T13:56:29.354Z,17.83
2018-10-18T13:58:57.599Z,18.43
2018-10-18T14:01:26.346Z,18.43
2018-10-18T14:03:53.940Z,18.10
2018-10-18T14:06:21.609Z,19.67
2018-10-18T14:08:49.228Z,17.90
2018-10-18T14:11:16.989Z,18.13
2018-10-18T14:13:44.667Z,19.40
2018-10-18T14:16:12.665Z,19.23
2018-10-18T14:18:40.241Z,20.30
2018-10-18T14:21:08.565Z,19.80
2018-10-18T14:23:36.174Z,19.77
2018-10-18T14:26:03.819Z,19.53
2018-10-18T14:28:31.553Z,19.30
2018-10-18T14:30:59.660Z,19.80
2018-10-18T14:33:27.269Z,19.97
2018-10-18T14:35:55.481Z,19.33
2018-10-18T14:38:24.142Z,19.43
2018-10-18T14:40:51.726Z,19.40
2018-10-18T14:43:19.556Z,19.13
2018-10-18T14:45:47.214Z,19.00
2018-10-18T14:48:14.850Z,19.37
2018-10-18T14:50:43.846Z,18.93
2018-10-18T14:53:11.516Z,18.80
2018-10-18T14:55:39.007Z,19.90
2018-10-18T14:58:06.838Z,20.27
2018-10-18T15:00:34.436Z,19.70
2018-10-18T15:03:02.025Z,19.80
2018-10-18T15:05:29.827Z,20.27
2018-10-18T15:07:57.485Z,20.87
2018-10-18T15:10:25.063Z,19.80
2018-10-18T15:12:52.843Z,20.03
2018-10-18T15:15:20.421Z,20.13
2018-10-18T15:17:48.065Z,21.13
2018-10-18T15:20:16.096Z,20.53
2018-10-18T15:22:43.624Z,20.83
2018-10-18T15:25:12.089Z,21.73
2018-10-18T15:27:40.437Z,22.43
2018-10-18T15:30:08.718Z,21.17
2018-10-18T15:32:36.779Z,21.87
2018-10-18T15:35:05.876Z,21.33
2018-10-18T15:37:33.709Z,21.03
2018-10-18T15:40:01.547Z,20.53
2018-10-18T15:42:29.160Z,22.33
2018-10-18T15:44:56.878Z,20.17
2018-10-18T15:47:24.888Z,20.37
2018-10-18T15:49:52.485Z,20.27
2018-10-18T15:52:20.169Z,22.07
2018-10-18T15:54:48.246Z,21.83
2018-10-18T15:57:15.911Z,21.33
2018-10-18T15:59:43.875Z,21.07
2018-10-18T16:02:11.729Z,22.27
2018-10-18T16:04:39.433Z,23.10
2018-10-18T16:07:07.013Z,22.00
2018-10-18T16:09:34.578Z,21.63
2018-10-18T16:12:02.197Z,22.50
2018-10-18T16:14:29.792Z,22.60
2018-10-18T16:16:57.937Z,20.77
2018-10-18T16:19:25.517Z,21.97
2018-10-18T16:21:53.136Z,22.23
2018-10-18T16:24:21.053Z,20.93
2018-10-18T16:26:48.700Z,22.53
2018-10-18T16:29:16.368Z,21.97
2018-10-18T16:31:45.214Z,22.07
2018-10-18T16:34:12.805Z,22.23
2018-10-18T16:36:40.338Z,22.00
2018-10-18T16:39:10.222Z,20.73
2018-10-18T16:41:37.940Z,22.57
2018-10-18T16:44:05.591Z,21.10
2018-10-18T16:46:33.443Z,20.87
2018-10-18T16:49:01.054Z,20.10
2018-10-18T16:51:28.665Z,19.20
2018-10-18T16:53:56.529Z,20.70
2018-10-18T16:56:25.701Z,21.83
2018-10-18T16:58:53.329Z,21.20
2018-10-18T17:01:21.250Z,20.83
2018-10-18T17:03:48.862Z,20.40
2018-10-18T17:06:16.487Z,21.27
2018-10-18T17:08:44.169Z,21.67
2018-10-18T17:11:11.769Z,21.73
2018-10-18T17:13:39.434Z,20.07
2018-10-18T17:16:07.401Z,19.83
2018-10-18T17:18:35.061Z,19.90
2018-10-18T17:21:02.887Z,20.60
2018-10-18T17:23:31.034Z,20.97
2018-10-18T17:25:58.578Z,20.87
2018-10-18T17:28:26.283Z,18.53
2018-10-18T17:30:54.330Z,19.57
2018-10-18T17:33:21.964Z,20.97
2018-10-18T17:35:49.616Z,19.93
2018-10-18T17:38:17.561Z,19.17
2018-10-18T17:40:45.228Z,18.57
2018-10-18T17:43:12.838Z,19.23
2018-10-18T17:45:40.925Z,19.70
2018-10-18T17:48:08.574Z,18.20
2018-10-18T17:50:36.196Z,17.10
2018-10-18T17:53:03.874Z,17.17
2018-10-18T17:55:31.522Z,16.97
2018-10-18T17:57:59.314Z,16.37
2018-10-18T18:00:26.910Z,17.03
2018-10-18T18:02:54.570Z,17.70
2018-10-18T18:05:23.067Z,16.80
2018-10-18T18:07:50.933Z,17.03
2018-10-18T18:10:18.959Z,17.67
2018-10-18T18:12:46.533Z,18.43
2018-10-18T18:15:14.477Z,16.93
2018-10-18T18:17:42.321Z,16.97
2018-10-18T18:20:11.838Z,16.43
2018-10-18T18:22:39.726Z,17.07
2018-10-18T18:25:09.302Z,17.53
2018-10-18T18:27:36.712Z,18.00
2018-10-18T18:30:08.205Z,15.63
2018-10-18T18:32:36.018Z,17.60
2018-10-18T18:35:04.157Z,17.40
2018-10-18T18:37:32.261Z,16.13
2018-10-18T18:39:59.944Z,15.17
2018-10-18T18:42:27.657Z,15.27
2018-10-18T18:45:01.210Z,15.43
2018-10-18T18:47:29.675Z,14.77
2018-10-18T18:49:57.354Z,14.97
2018-10-18T18:52:25.334Z,15.80
2018-10-18T18:54:53.126Z,15.90
2018-10-18T18:57:20.829Z,16.23
2018-10-18T18:59:48.762Z,14.03
2018-10-18T19:02:16.795Z,15.53
2018-10-18T19:04:44.825Z,14.90
2018-10-18T19:07:13.085Z,14.73
2018-10-18T19:09:41.104Z,14.63
2018-10-18T19:12:09.719Z,15.07
2018-10-18T19:14:37.812Z,14.90
2018-10-18T19:17:22.359Z,14.87
2018-10-18T19:19:50.232Z,13.23
2018-10-18T19:22:40.693Z,13.53
2018-10-18T19:25:46.221Z,13.97
2018-10-18T19:28:13.824Z,13.23
2018-10-18T19:30:41.707Z,13.27
2018-10-18T19:33:09.533Z,11.80
2018-10-18T19:35:37.456Z,12.33
2018-10-18T19:38:05.294Z,13.23
2018-10-18T19:40:33.093Z,12.47
2018-10-18T19:43:02.665Z,12.77
2018-10-18T19:45:30.566Z,12.53
2018-10-18T19:47:58.658Z,12.23
2018-10-18T19:50:26.533Z,13.03
2018-10-18T19:52:54.371Z,12.33
2018-10-18T19:55:22.142Z,13.33
2018-10-18T19:57:50.595Z,13.23
2018-10-18T20:00:19.169Z,12.97
2018-10-18T20:02:46.932Z,12.03
2018-10-18T20:07:41.787Z,12.03
2018-10-18T20:12:36.728Z,11.93
2018-10-18T20:15:05.699Z,11.90
2018-10-18T20:17:33.508Z,12.60
2018-10-18T20:20:01.179Z,12.10
2018-10-18T20:22:28.738Z,12.57
2018-10-18T20:27:25.040Z,12.93
2018-10-18T20:29:52.736Z,13.60
2018-10-18T20:34:47.517Z,13.23
2018-10-18T20:37:15.121Z,13.50
2018-10-18T20:39:43.004Z,13.00
2018-10-18T20:42:10.593Z,12.93
2018-10-18T20:44:38.215Z,12.10
2018-10-18T20:49:32.946Z,12.93
2018-10-18T20:52:00.575Z,13.37
2018-10-18T20:56:55.622Z,13.63
2018-10-18T21:01:50.476Z,12.87
2018-10-18T21:04:18.121Z,13.37
2018-10-18T21:09:13.717Z,12.57
2018-10-18T21:11:41.769Z,12.60
2018-10-18T21:14:09.397Z,13.37
2018-10-18T21:16:37.109Z,12.23
2018-10-18T21:19:05.798Z,12.60
2018-10-18T21:21:34.489Z,11.80
2018-10-18T21:24:02.274Z,12.57
2018-10-18T21:26:30.041Z,13.43
2018-10-18T21:28:57.790Z,12.17
2018-10-18T21:31:25.316Z,12.00
2018-10-18T21:33:53.713Z,11.17
2018-10-18T21:36:21.344Z,12.67
2018-10-18T21:38:49.342Z,12.57
2018-10-18T21:43:44.309Z,11.80
2018-10-18T21:48:39.961Z,11.97
2018-10-18T21:51:07.848Z,13.00
2018-10-18T21:56:02.819Z,13.43
2018-10-18T21:58:30.487Z,12.93
2018-10-18T22:03:25.338Z,11.13
2018-10-18T22:05:53.000Z,12.07
2018-10-18T22:10:50.033Z,11.57
2018-10-18T22:13:18.334Z,12.07
2018-10-18T22:18:13.925Z,11.93
2018-10-18T22:20:41.647Z,12.73
2018-10-18T22:25:36.530Z,11.73
2018-10-18T22:28:05.021Z,11.67
2018-10-18T22:30:32.615Z,12.33
2018-10-18T22:33:00.367Z,11.87
2018-10-18T22:35:28.220Z,12.03
2018-10-18T22:37:55.867Z,11.30
2018-10-18T22:40:23.515Z,10.97
2018-10-18T22:43:13.628Z,10.50
2018-10-18T22:45:47.878Z,10.37
2018-10-18T22:53:53.094Z,9.37
2018-10-18T22:56:21.095Z,8.87
2018-10-18T22:58:54.601Z,9.93
2018-10-18T23:03:49.699Z,9.43
2018-10-18T23:06:17.335Z,9.03
2018-10-18T23:08:45.459Z,9.20
2018-10-18T23:11:13.233Z,8.77
2018-10-18T23:13:41.349Z,9.60
2018-10-18T23:18:37.379Z,9.40
2018-10-18T23:21:05.970Z,10.20
2018-10-18T23:26:01.060Z,8.97
2018-10-18T23:28:28.821Z,8.23
2018-10-18T23:30:56.722Z,7.90
2018-10-18T23:33:24.449Z,7.90
2018-10-18T23:35:52.073Z,7.60
2018-10-18T23:40:47.505Z,8.10
2018-10-18T23:43:15.117Z,7.87
2018-10-18T23:45:42.933Z,7.80
2018-10-18T23:48:10.662Z,8.43
2018-10-18T23:50:38.268Z,7.17
2018-10-18T23:55:33.285Z,7.37
2018-10-18T23:58:00.931Z,8.10
